createdAt,value
2023-04-29T00:02:30.437Z,8.67
2023-04-29T00:05:00.535Z,8.23
2023-04-29T00:07:29.265Z,13.20
2023-04-29T00:09:57.633Z,10.17
2023-04-29T00:12:26.121Z,8.53
2023-04-29T00:14:54.446Z,13.93
2023-04-29T00:17:24.214Z,8.97
2023-04-29T00:19:53.031Z,16.53
2023-04-29T00:22:22.115Z,10.07
2023-04-29T00:24:50.540Z,10.73
2023-04-29T00:27:18.926Z,10.40
2023-04-29T00:29:47.306Z,3.37
2023-04-29T00:32:15.652Z,12.03
2023-04-29T00:34:45.386Z,7.37
2023-04-29T00:37:13.738Z,6.60
2023-04-29T00:39:42.145Z,6.60
2023-04-29T00:42:11.327Z,10.17
2023-04-29T00:44:39.704Z,4.23
2023-04-29T00:47:11.432Z,8.77
2023-04-29T00:49:39.881Z,9.77
2023-04-29T00:52:09.975Z,9.20
2023-04-29T00:54:38.853Z,8.33
2023-04-29T00:57:07.404Z,6.80
2023-04-29T00:59:35.808Z,8.77
2023-04-29T01:02:04.897Z,8.03
2023-04-29T01:04:33.364Z,9.33
2023-04-29T01:07:04.932Z,9.60
2023-04-29T01:09:41.154Z,13.57
2023-04-29T01:12:13.467Z,10.20
2023-04-29T01:14:45.193Z,5.17
2023-04-29T01:17:18.355Z,10.07
2023-04-29T01:19:48.822Z,8.83
2023-04-29T01:22:17.844Z,6.70
2023-04-29T01:24:48.369Z,13.37
2023-04-29T01:27:21.233Z,8.17
2023-04-29T01:29:53.676Z,9.83
2023-04-29T01:32:26.878Z,11.30
2023-04-29T01:34:59.795Z,9.53
2023-04-29T01:37:32.898Z,10.67
2023-04-29T01:40:07.184Z,9.50
2023-04-29T01:42:38.367Z,7.73
2023-04-29T01:45:08.392Z,6.70
2023-04-29T01:47:38.384Z,11.97
2023-04-29T01:50:07.292Z,8.87
2023-04-29T01:52:35.646Z,7.20
2023-04-29T01:55:05.641Z,6.43
2023-04-29T01:57:34.409Z,6.97
2023-04-29T02:00:04.891Z,11.73
2023-04-29T02:02:33.390Z,10.33
2023-04-29T02:05:02.314Z,12.80
2023-04-29T02:07:31.014Z,19.93
2023-04-29T02:09:59.368Z,10.93
2023-04-29T02:12:29.138Z,7.57
2023-04-29T02:14:59.163Z,8.20
2023-04-29T02:17:27.657Z,7.80
2023-04-29T02:19:56.109Z,10.77
2023-04-29T02:22:24.541Z,6.00
2023-04-29T02:24:53.160Z,7.93
2023-04-29T02:27:21.557Z,9.07
2023-04-29T02:29:51.695Z,5.87
2023-04-29T02:32:21.172Z,4.57
2023-04-29T02:34:49.628Z,6.20
2023-04-29T02:37:18.134Z,11.07
2023-04-29T02:39:47.079Z,7.27
2023-04-29T02:42:15.464Z,9.20
2023-04-29T02:44:44.039Z,5.20
2023-04-29T02:47:13.997Z,10.97
2023-04-29T02:49:42.482Z,6.37
2023-04-29T02:52:10.881Z,12.97
2023-04-29T02:54:39.338Z,17.20
2023-04-29T02:57:08.193Z,16.60
2023-04-29T02:59:37.056Z,7.40
2023-04-29T03:02:05.602Z,6.10
2023-04-29T03:04:35.363Z,11.73
2023-04-29T03:07:04.878Z,7.17
2023-04-29T03:09:33.363Z,8.00
2023-04-29T03:12:02.951Z,5.80
2023-04-29T03:14:31.350Z,8.60
2023-04-29T03:16:59.764Z,14.97
2023-04-29T03:19:28.176Z,7.97
2023-04-29T03:21:57.900Z,13.67
2023-04-29T03:24:26.223Z,9.07
2023-04-29T03:26:54.870Z,12.23
2023-04-29T03:29:23.210Z,15.23
2023-04-29T03:31:51.857Z,21.23
2023-04-29T03:34:20.316Z,17.77
2023-04-29T03:36:48.730Z,9.70
2023-04-29T03:39:18.590Z,12.60
2023-04-29T03:41:46.977Z,5.07
2023-04-29T03:44:15.391Z,9.67
2023-04-29T03:46:43.799Z,12.77
2023-04-29T03:49:12.155Z,10.30
2023-04-29T03:51:40.542Z,9.83
2023-04-29T03:54:09.934Z,7.70
2023-04-29T03:56:39.851Z,12.07
2023-04-29T03:59:08.283Z,13.30
2023-04-29T04:01:36.736Z,8.50
2023-04-29T04:04:05.356Z,11.67
2023-04-29T04:06:33.978Z,6.80
2023-04-29T04:09:02.440Z,9.40
2023-04-29T04:11:30.803Z,9.30
2023-04-29T04:14:00.659Z,8.17
2023-04-29T04:16:29.119Z,11.57
2023-04-29T04:18:57.545Z,5.60
2023-04-29T04:21:27.578Z,12.53
2023-04-29T04:23:56.007Z,9.17
2023-04-29T04:26:24.427Z,7.83
2023-04-29T04:28:52.844Z,6.53
2023-04-29T04:31:22.570Z,6.73
2023-04-29T04:33:51.062Z,12.37
2023-04-29T04:36:19.465Z,10.40
2023-04-29T04:38:47.791Z,17.10
2023-04-29T04:41:16.185Z,13.40
2023-04-29T04:43:45.132Z,8.67
2023-04-29T04:46:14.346Z,5.30
2023-04-29T04:48:44.399Z,4.53
2023-04-29T04:51:13.570Z,6.47
2023-04-29T04:53:42.574Z,7.73
2023-04-29T04:56:11.180Z,7.07
2023-04-29T04:58:39.612Z,5.17
2023-04-29T05:01:08.062Z,8.50
2023-04-29T05:03:36.990Z,8.60
2023-04-29T05:06:06.954Z,8.20
2023-04-29T05:08:35.418Z,10.73
2023-04-29T05:11:03.874Z,7.03
2023-04-29T05:13:32.279Z,8.23
2023-04-29T05:16:06.373Z,5.73
2023-04-29T05:18:35.137Z,10.30
2023-04-29T05:21:03.516Z,7.20
2023-04-29T05:23:33.365Z,9.00
2023-04-29T05:26:01.799Z,10.73
2023-04-29T05:28:30.215Z,8.83
2023-04-29T05:30:58.720Z,7.83
2023-04-29T05:33:27.226Z,6.77
2023-04-29T05:35:55.631Z,4.43
2023-04-29T05:38:28.937Z,12.27
2023-04-29T05:40:59.163Z,10.03
2023-04-29T05:43:27.609Z,5.17
2023-04-29T05:45:56.320Z,9.23
2023-04-29T05:48:24.823Z,5.70
2023-04-29T05:50:54.018Z,6.57
2023-04-29T05:53:22.345Z,12.73
2023-04-29T05:55:51.459Z,5.13
2023-04-29T05:58:21.451Z,6.67
2023-04-29T06:00:50.394Z,6.57
2023-04-29T06:03:18.837Z,6.33
2023-04-29T06:05:47.747Z,5.10
2023-04-29T06:08:16.264Z,3.80
2023-04-29T06:10:44.701Z,7.70
2023-04-29T06:13:13.171Z,8.17
2023-04-29T06:15:43.020Z,11.17
2023-04-29T06:18:11.450Z,4.30
2023-04-29T06:20:40.022Z,8.70
2023-04-29T06:23:08.781Z,8.13
2023-04-29T06:25:37.246Z,6.83
2023-04-29T06:28:05.871Z,5.37
2023-04-29T06:30:34.357Z,6.53
2023-04-29T06:33:04.174Z,8.70
2023-04-29T06:35:33.133Z,6.43
2023-04-29T06:38:01.550Z,5.57
2023-04-29T06:40:29.932Z,5.73
2023-04-29T06:42:58.256Z,3.93
2023-04-29T06:45:27.376Z,8.43
2023-04-29T06:47:56.261Z,5.83
2023-04-29T06:50:26.248Z,5.77
2023-04-29T06:52:54.832Z,8.63
2023-04-29T06:55:23.215Z,4.97
2023-04-29T06:57:51.932Z,12.63
2023-04-29T07:00:21.212Z,5.33
2023-04-29T07:02:49.735Z,6.43
2023-04-29T07:05:18.689Z,4.67
2023-04-29T07:07:48.430Z,6.30
2023-04-29T07:10:16.927Z,3.83
2023-04-29T07:12:45.561Z,4.00
2023-04-29T07:15:13.983Z,6.87
2023-04-29T07:17:42.473Z,4.03
2023-04-29T07:20:11.616Z,12.27
2023-04-29T07:22:39.965Z,8.37
2023-04-29T07:25:11.110Z,6.90
2023-04-29T07:27:39.627Z,3.00
2023-04-29T07:30:09.188Z,2.83
2023-04-29T07:32:37.583Z,5.33
2023-04-29T07:35:06.241Z,4.10
2023-04-29T07:37:34.567Z,6.67
2023-04-29T07:40:02.942Z,5.07
2023-04-29T07:42:33.002Z,9.00
2023-04-29T07:45:01.534Z,3.10
2023-04-29T07:47:29.924Z,1.83
2023-04-29T07:49:58.569Z,6.70
2023-04-29T07:52:27.103Z,8.00
2023-04-29T07:54:56.620Z,6.20
2023-04-29T07:57:25.219Z,7.67
2023-04-29T07:59:55.578Z,6.57
2023-04-29T08:02:24.268Z,3.97
2023-04-29T08:04:54.774Z,16.53
2023-04-29T08:07:23.560Z,9.20
2023-04-29T08:09:52.153Z,3.77
2023-04-29T08:12:20.515Z,4.73
2023-04-29T08:14:49.053Z,3.20
2023-04-29T08:17:18.794Z,1.50
2023-04-29T08:19:47.503Z,4.10
2023-04-29T08:22:16.025Z,7.37
2023-04-29T08:24:45.247Z,5.00
2023-04-29T08:27:13.744Z,2.90
2023-04-29T08:29:42.256Z,4.20
2023-04-29T08:32:10.693Z,4.87
2023-04-29T08:34:41.952Z,8.57
2023-04-29T08:37:10.362Z,11.30
2023-04-29T08:39:38.978Z,5.17
2023-04-29T08:42:10.071Z,3.60
2023-04-29T08:44:38.675Z,2.47
2023-04-29T08:47:07.232Z,5.83
2023-04-29T08:49:38.093Z,5.27
2023-04-29T08:52:08.084Z,4.90
2023-04-29T08:54:36.954Z,4.47
2023-04-29T08:57:06.313Z,4.87
2023-04-29T08:59:34.742Z,3.83
2023-04-29T09:02:03.191Z,3.87
2023-04-29T09:04:43.122Z,1.57
2023-04-29T09:07:13.654Z,3.40
2023-04-29T09:09:42.616Z,2.50
2023-04-29T09:12:11.000Z,4.53
2023-04-29T09:14:39.478Z,3.23
2023-04-29T09:17:07.882Z,5.13
2023-04-29T09:19:37.120Z,4.90
2023-04-29T09:22:07.320Z,2.80
2023-04-29T09:24:38.053Z,2.50
2023-04-29T09:27:06.457Z,9.80
2023-04-29T09:29:36.548Z,1.73
2023-04-29T09:32:20.226Z,6.20
2023-04-29T09:34:48.814Z,4.13
2023-04-29T09:37:26.146Z,5.43
2023-04-29T09:39:56.549Z,5.10
2023-04-29T09:42:24.883Z,6.20
2023-04-29T09:44:54.476Z,2.77
2023-04-29T09:47:31.412Z,1.63
2023-04-29T09:50:12.590Z,5.60
2023-04-29T09:52:42.853Z,1.67
2023-04-29T09:55:15.423Z,3.43
2023-04-29T09:57:45.307Z,5.90
2023-04-29T10:00:14.703Z,3.17
2023-04-29T10:02:44.091Z,2.40
2023-04-29T10:05:13.514Z,4.43
2023-04-29T10:07:42.861Z,8.90
2023-04-29T10:10:13.811Z,0.70
2023-04-29T10:12:42.978Z,1.70
2023-04-29T10:15:15.838Z,5.90
2023-04-29T10:17:46.218Z,9.10
2023-04-29T10:20:16.308Z,4.03
2023-04-29T10:22:47.853Z,3.97
2023-04-29T10:25:18.618Z,18.23
2023-04-29T10:27:47.406Z,5.77
2023-04-29T10:30:16.532Z,1.53
2023-04-29T10:32:51.221Z,5.53
2023-04-29T10:35:23.312Z,6.57
2023-04-29T10:37:53.071Z,4.67
2023-04-29T10:40:26.756Z,3.83
2023-04-29T10:42:55.638Z,5.70
2023-04-29T10:45:28.524Z,5.10
2023-04-29T10:48:13.332Z,2.50
2023-04-29T10:50:43.382Z,5.43
2023-04-29T10:53:11.864Z,4.37
2023-04-29T10:55:41.979Z,3.80
2023-04-29T10:58:32.382Z,3.20
2023-04-29T11:01:01.109Z,3.93
2023-04-29T11:03:44.504Z,4.50
2023-04-29T11:06:13.392Z,8.33
2023-04-29T11:08:42.928Z,6.43
2023-04-29T11:11:15.055Z,2.17
2023-04-29T11:13:48.574Z,5.77
2023-04-29T11:16:16.978Z,4.17
2023-04-29T11:19:05.999Z,5.47
2023-04-29T11:21:35.945Z,4.23
2023-04-29T11:24:06.412Z,3.67
2023-04-29T11:26:37.795Z,2.90
2023-04-29T11:29:08.457Z,1.97
2023-04-29T11:31:36.999Z,2.57
2023-04-29T11:34:06.126Z,2.50
2023-04-29T11:36:34.739Z,2.33
2023-04-29T11:39:03.650Z,2.00
2023-04-29T11:41:32.657Z,2.73
2023-04-29T11:44:03.682Z,8.30
2023-04-29T11:46:32.937Z,6.50
2023-04-29T11:49:01.615Z,2.67
2023-04-29T11:51:30.025Z,3.50
2023-04-29T11:53:58.970Z,6.43
2023-04-29T11:56:27.588Z,3.20
2023-04-29T11:58:56.889Z,3.50
2023-04-29T12:01:27.441Z,3.57
2023-04-29T12:04:01.000Z,5.53
2023-04-29T12:06:30.469Z,2.57
2023-04-29T12:09:01.259Z,4.80
2023-04-29T12:11:29.862Z,3.20
2023-04-29T12:13:58.518Z,4.33
2023-04-29T12:16:29.674Z,5.23
2023-04-29T12:18:58.914Z,1.43
2023-04-29T12:21:27.487Z,0.83
2023-04-29T12:23:56.244Z,1.70
2023-04-29T12:26:25.113Z,3.60
2023-04-29T12:28:56.101Z,8.13
2023-04-29T12:31:24.616Z,1.33
2023-04-29T12:33:56.598Z,2.83
2023-04-29T12:36:24.998Z,2.97
2023-04-29T12:38:55.951Z,3.17
2023-04-29T12:41:37.987Z,5.13
2023-04-29T12:44:07.520Z,5.83
2023-04-29T12:46:39.510Z,3.07
2023-04-29T12:49:09.825Z,2.57
2023-04-29T12:51:38.382Z,3.80
2023-04-29T12:54:07.784Z,2.80
2023-04-29T12:56:36.135Z,3.13
2023-04-29T12:59:08.459Z,1.27
2023-04-29T13:01:36.906Z,3.07
2023-04-29T13:04:06.654Z,5.97
2023-04-29T13:06:39.515Z,2.47
2023-04-29T13:09:17.816Z,6.73
2023-04-29T13:11:47.676Z,3.23
2023-04-29T13:14:16.802Z,4.23
2023-04-29T13:16:45.281Z,2.47
2023-04-29T13:19:32.206Z,0.80
2023-04-29T13:22:03.804Z,2.73
2023-04-29T13:24:33.145Z,5.53
2023-04-29T13:27:03.150Z,4.67
2023-04-29T13:29:31.666Z,3.33
2023-04-29T13:32:00.120Z,3.43
2023-04-29T13:34:28.539Z,2.77
2023-04-29T13:36:56.898Z,2.03
2023-04-29T13:39:27.097Z,1.53
2023-04-29T13:41:58.937Z,2.30
2023-04-29T13:44:37.635Z,4.27
2023-04-29T13:47:18.112Z,4.13
2023-04-29T13:50:22.559Z,1.40
2023-04-29T13:56:03.869Z,7.30
2023-04-29T14:03:07.569Z,2.00
2023-04-29T14:05:36.184Z,1.80
2023-04-29T14:08:04.805Z,1.63
2023-04-29T14:10:34.619Z,1.90
2023-04-29T14:13:03.225Z,0.93
2023-04-29T14:15:31.837Z,4.87
2023-04-29T14:18:00.301Z,1.60
2023-04-29T14:20:28.711Z,1.77
2023-04-29T14:22:57.041Z,2.60
2023-04-29T14:25:26.676Z,1.30
2023-04-29T14:27:57.795Z,2.73
2023-04-29T14:30:26.177Z,1.10
2023-04-29T14:32:54.608Z,1.37
2023-04-29T14:35:22.989Z,1.60
2023-04-29T14:37:51.624Z,2.37
2023-04-29T14:40:20.111Z,2.00
2023-04-29T14:42:48.497Z,1.10
2023-04-29T14:45:18.417Z,1.07
2023-04-29T14:47:46.993Z,1.10
2023-04-29T14:50:16.280Z,2.43
2023-04-29T14:52:44.661Z,1.50
2023-04-29T14:55:13.035Z,1.40
2023-04-29T14:57:41.508Z,2.57
2023-04-29T15:00:10.974Z,2.00
2023-04-29T15:02:40.716Z,1.57
2023-04-29T15:05:09.382Z,1.70
2023-04-29T15:07:37.730Z,1.70
2023-04-29T15:10:09.518Z,1.80
2023-04-29T15:12:37.901Z,1.90
2023-04-29T15:15:06.685Z,3.40
2023-04-29T15:17:35.211Z,1.03
2023-04-29T15:20:05.272Z,1.00
2023-04-29T15:22:33.676Z,1.50
2023-04-29T15:25:02.159Z,2.53
2023-04-29T15:27:30.569Z,1.60
2023-04-29T15:29:58.956Z,3.17
2023-04-29T15:32:31.805Z,1.27
2023-04-29T15:35:00.441Z,3.00
2023-04-29T15:37:30.582Z,1.70
2023-04-29T15:40:00.552Z,2.60
2023-04-29T15:42:29.285Z,0.80
2023-04-29T15:44:57.675Z,1.07
2023-04-29T15:47:26.576Z,1.90
2023-04-29T15:49:56.598Z,1.27
2023-04-29T15:52:25.208Z,3.23
2023-04-29T15:54:54.941Z,4.87
2023-04-29T15:57:23.308Z,1.73
2023-04-29T15:59:52.017Z,0.90
2023-04-29T16:02:21.260Z,1.33
2023-04-29T16:04:49.915Z,1.03
2023-04-29T16:07:18.902Z,6.23
2023-04-29T16:09:47.242Z,1.53
2023-04-29T16:12:16.963Z,5.37
2023-04-29T16:14:45.350Z,1.00
2023-04-29T16:17:13.848Z,1.73
2023-04-29T16:19:42.246Z,1.93
2023-04-29T16:22:10.587Z,1.17
2023-04-29T16:24:38.940Z,4.40
2023-04-29T16:27:07.382Z,1.10
2023-04-29T16:29:37.178Z,1.67
2023-04-29T16:32:05.676Z,2.23
2023-04-29T16:34:34.043Z,2.10
2023-04-29T16:37:02.459Z,2.40
2023-04-29T16:39:31.166Z,2.43
2023-04-29T16:42:00.683Z,2.87
2023-04-29T16:44:29.021Z,1.20
2023-04-29T16:46:58.804Z,5.13
2023-04-29T16:49:27.805Z,1.70
2023-04-29T16:51:56.375Z,1.60
2023-04-29T16:54:24.767Z,1.57
2023-04-29T16:56:53.254Z,1.80
2023-04-29T16:59:21.661Z,3.73
2023-04-29T17:01:50.321Z,2.27
2023-04-29T17:04:20.330Z,1.77
2023-04-29T17:06:48.900Z,2.27
2023-04-29T17:09:17.277Z,1.83
2023-04-29T17:11:45.713Z,2.97
2023-04-29T17:14:14.211Z,0.83
2023-04-29T17:16:42.693Z,2.20
2023-04-29T17:19:11.234Z,1.30
2023-04-29T17:21:41.025Z,1.13
2023-04-29T17:24:09.464Z,3.30
2023-04-29T17:26:37.787Z,0.83
2023-04-29T17:29:06.126Z,4.13
2023-04-29T17:31:45.105Z,1.03
2023-04-29T17:34:19.153Z,1.33
2023-04-29T17:36:49.058Z,1.23
2023-04-29T17:39:17.489Z,1.07
2023-04-29T17:41:46.430Z,0.87
2023-04-29T17:44:14.800Z,1.10
2023-04-29T17:46:43.603Z,2.10
2023-04-29T17:49:11.994Z,0.70
2023-04-29T17:51:40.414Z,1.00
2023-04-29T17:54:10.427Z,2.10
2023-04-29T17:56:38.911Z,1.73
2023-04-29T17:59:08.214Z,1.23
2023-04-29T18:01:37.082Z,3.07
2023-04-29T18:04:06.016Z,2.40
2023-04-29T18:06:34.965Z,1.57
2023-04-29T18:09:03.398Z,1.60
2023-04-29T18:11:33.189Z,1.90
2023-04-29T18:14:01.527Z,2.57
2023-04-29T18:16:29.971Z,1.53
2023-04-29T18:18:58.376Z,2.00
2023-04-29T18:21:27.369Z,1.73
2023-04-29T18:23:56.006Z,3.03
2023-04-29T18:26:24.643Z,1.90
2023-04-29T18:28:54.427Z,1.67
2023-04-29T18:31:26.422Z,3.77
2023-04-29T18:33:55.050Z,1.93
2023-04-29T18:36:23.769Z,2.80
2023-04-29T18:38:52.181Z,2.87
2023-04-29T18:41:20.801Z,2.27
2023-04-29T18:43:49.288Z,1.50
2023-04-29T18:46:19.080Z,18.07
2023-04-29T18:48:47.465Z,1.27
2023-04-29T18:51:15.865Z,2.00
2023-04-29T18:53:44.233Z,2.30
2023-04-29T18:56:12.731Z,2.93
2023-04-29T18:58:41.396Z,1.23
2023-04-29T19:01:09.903Z,0.97
2023-04-29T19:03:40.394Z,1.53
2023-04-29T19:06:08.851Z,1.13
2023-04-29T19:08:37.235Z,1.20
2023-04-29T19:11:05.854Z,1.47
2023-04-29T19:13:34.302Z,1.33
2023-04-29T19:16:02.775Z,2.70
2023-04-29T19:18:31.368Z,0.90
2023-04-29T19:21:01.922Z,2.23
2023-04-29T19:23:30.342Z,4.47
2023-04-29T19:25:58.763Z,1.80
2023-04-29T19:28:27.128Z,1.43
2023-04-29T19:30:55.542Z,1.50
2023-04-29T19:33:23.920Z,1.40
2023-04-29T19:35:52.294Z,7.63
2023-04-29T19:38:22.021Z,5.33
2023-04-29T19:40:50.385Z,1.97
2023-04-29T19:43:18.765Z,1.77
2023-04-29T19:45:47.230Z,1.57
2023-04-29T19:48:15.960Z,6.67
2023-04-29T19:50:44.425Z,1.17
2023-04-29T19:53:12.806Z,1.90
2023-04-29T19:55:42.872Z,0.93
2023-04-29T19:58:11.272Z,0.90
2023-04-29T20:00:40.011Z,6.03
2023-04-29T20:03:08.488Z,2.13
2023-04-29T20:05:36.993Z,2.33
2023-04-29T20:08:05.400Z,1.97
2023-04-29T20:10:33.990Z,1.47
2023-04-29T20:13:03.781Z,3.53
2023-04-29T20:15:32.214Z,1.07
2023-04-29T20:18:00.837Z,1.87
2023-04-29T20:20:29.436Z,1.60
2023-04-29T20:23:00.326Z,2.57
2023-04-29T20:25:28.697Z,0.70
2023-04-29T20:27:57.481Z,2.10
2023-04-29T20:30:27.331Z,1.13
2023-04-29T20:32:56.007Z,2.73
2023-04-29T20:35:24.535Z,2.47
2023-04-29T20:37:52.901Z,1.27
2023-04-29T20:40:21.516Z,2.40
2023-04-29T20:42:49.948Z,2.47
2023-04-29T20:45:18.475Z,0.70
2023-04-29T20:47:48.440Z,1.07
2023-04-29T20:50:17.076Z,1.00
2023-04-29T20:52:49.152Z,3.70
2023-04-29T20:55:17.690Z,2.33
2023-04-29T20:57:46.087Z,1.63
2023-04-29T21:00:15.137Z,1.40
2023-04-29T21:02:44.863Z,1.87
2023-04-29T21:05:14.693Z,3.20
2023-04-29T21:07:43.086Z,1.73
2023-04-29T21:10:12.094Z,7.77
2023-04-29T21:12:40.496Z,1.90
2023-04-29T21:15:09.387Z,1.73
2023-04-29T21:17:37.742Z,1.03
2023-04-29T21:20:07.740Z,1.20
2023-04-29T21:22:37.432Z,1.47
2023-04-29T21:25:06.621Z,0.90
2023-04-29T21:27:35.934Z,2.83
2023-04-29T21:30:04.827Z,2.60
2023-04-29T21:32:33.800Z,1.20
2023-04-29T21:35:02.311Z,1.97
2023-04-29T21:37:31.159Z,1.07
2023-04-29T21:40:00.898Z,3.83
2023-04-29T21:42:29.565Z,0.87
2023-04-29T21:44:59.376Z,4.70
2023-04-29T21:47:28.800Z,1.13
2023-04-29T21:49:57.849Z,2.33
2023-04-29T21:52:26.366Z,0.90
2023-04-29T21:54:54.724Z,0.93
2023-04-29T21:57:35.483Z,3.93
2023-04-29T22:00:21.642Z,2.33
2023-04-29T22:02:50.069Z,1.43
2023-04-29T22:05:18.422Z,2.10
2023-04-29T22:07:47.134Z,2.20
2023-04-29T22:10:15.561Z,1.57
2023-04-29T22:12:45.431Z,4.43
2023-04-29T22:15:24.618Z,2.30
2023-04-29T22:17:57.012Z,0.80
2023-04-29T22:20:25.861Z,0.90
2023-04-29T22:22:54.315Z,1.40
2023-04-29T22:25:22.850Z,2.77
2023-04-29T22:27:52.985Z,0.70
2023-04-29T22:30:21.651Z,1.17
2023-04-29T22:32:50.077Z,2.07
2023-04-29T22:35:18.574Z,1.73
2023-04-29T22:37:47.010Z,2.70
2023-04-29T22:40:15.631Z,2.60
2023-04-29T22:42:44.257Z,3.37
2023-04-29T22:45:14.128Z,3.00
2023-04-29T22:47:43.325Z,1.40
2023-04-29T22:50:12.044Z,5.77
2023-04-29T22:52:40.434Z,2.93
2023-04-29T22:55:09.292Z,1.13
2023-04-29T22:57:37.714Z,0.87
2023-04-29T23:00:07.188Z,0.90
2023-04-29T23:02:36.934Z,2.33
2023-04-29T23:05:05.889Z,1.10
2023-04-29T23:07:36.113Z,1.10
2023-04-29T23:10:04.535Z,1.67
2023-04-29T23:12:32.894Z,1.77
2023-04-29T23:15:01.278Z,1.97
2023-04-29T23:17:29.740Z,3.17
2023-04-29T23:19:59.726Z,1.47
2023-04-29T23:22:28.076Z,1.10
2023-04-29T23:24:56.458Z,1.63
2023-04-29T23:27:25.006Z,1.23
2023-04-29T23:29:53.887Z,0.80
2023-04-29T23:32:22.480Z,1.40
2023-04-29T23:34:50.952Z,1.60
2023-04-29T23:37:20.649Z,2.57
2023-04-29T23:39:48.966Z,0.83
2023-04-29T23:42:17.326Z,1.53
2023-04-29T23:44:45.686Z,1.73
2023-04-29T23:47:14.649Z,0.90
2023-04-29T23:49:43.021Z,3.87
2023-04-29T23:52:11.404Z,7.77
2023-04-29T23:54:41.240Z,0.80
2023-04-29T23:57:09.604Z,6.73
2023-04-29T23:59:37.985Z,3.90
